Time;durP1;ratioP1;P1;durP2;ratioP2;P2;SDS_P1;SDS_P2;PMS_P1;PMS_P2;Temp;Humidity;BMP_temperature;BMP_pressure;BME280_temperature;BME280_humidity;BME280_pressure;Samples;Min_cycle;Max_cycle;Signal;HPM_P1;HPM_P2
2022/07/17 00:00:55;;;;;;;2.60;1.10;;;;;;;;;;109091;1253;33250;-35
2022/07/17 00:03:27;;;;;;;3.20;1.00;;;;;;;;;;109106;1259;33246;-35
2022/07/17 00:05:59;;;;;;;2.70;0.90;;;;;;;;;;109129;1253;33660;-35
2022/07/17 00:08:32;;;;;;;3.00;1.20;;;;;;;;;;109095;1253;32767;-35
2022/07/17 00:11:05;;;;;;;2.20;1.10;;;;;;;;;;109089;1259;33102;-35
2022/07/17 00:13:38;;;;;;;2.20;0.80;;;;;;;;;;109115;1253;33495;-35
2022/07/17 00:16:12;;;;;;;2.10;1.00;;;;;;;;;;109118;1254;33831;-35
2022/07/17 00:18:44;;;;;;;3.60;1.40;;;;;;;;;;109158;1253;34961;-35
2022/07/17 00:21:17;;;;;;;2.70;1.10;;;;;;;;;;109100;1259;33520;-35
2022/07/17 00:23:49;;;;;;;4.20;1.20;;;;;;;;;;109103;1259;33653;-35
2022/07/17 00:26:21;;;;;;;2.60;0.90;;;;;;;;;;109123;1259;33092;-35
2022/07/17 00:28:54;;;;;;;2.30;1.00;;;;;;;;;;109126;1253;32699;-35
2022/07/17 00:31:26;;;;;;;2.40;1.10;;;;;;;;;;109128;1259;33344;-35
2022/07/17 00:33:59;;;;;;;3.10;1.00;;;;;;;;;;109138;1259;33170;-35
2022/07/17 00:36:31;;;;;;;2.70;0.90;;;;;;;;;;109118;1254;33449;-35
2022/07/17 00:39:04;;;;;;;2.20;0.90;;;;;;;;;;109144;1253;33161;-35
2022/07/17 00:41:36;;;;;;;5.70;1.40;;;;;;;;;;109099;1254;33083;-35
2022/07/17 00:44:11;;;;;;;9.10;1.70;;;;;;;;;;109126;1259;33512;-35
2022/07/17 00:46:44;;;;;;;5.30;2.10;;;;;;;;;;109132;1253;33917;-35
2022/07/17 00:49:16;;;;;;;6.00;1.80;;;;;;;;;;109139;1254;33101;-35
2022/07/17 00:51:48;;;;;;;5.20;1.50;;;;;;;;;;109104;1253;33483;-35
2022/07/17 00:54:22;;;;;;;4.50;1.30;;;;;;;;;;109117;1253;33076;-35
2022/07/17 00:56:55;;;;;;;4.40;1.20;;;;;;;;;;109099;1253;33643;-35
2022/07/17 00:59:26;;;;;;;;;;;;;;;;;;109103;1253;32693;-35
2022/07/17 01:01:58;;;;;;;5.40;1.10;;;;;;;;;;109078;1259;34214;-35
2022/07/17 01:04:31;;;;;;;4.70;1.40;;;;;;;;;;109112;1253;33858;-35
2022/07/17 01:07:05;;;;;;;3.90;1.10;;;;;;;;;;109136;1253;33581;-35
2022/07/17 01:09:38;;;;;;;4.40;1.20;;;;;;;;;;109100;1252;32671;-35
2022/07/17 01:12:12;;;;;;;4.00;1.50;;;;;;;;;;109135;1259;33240;-35
2022/07/17 01:14:44;;;;;;;3.20;1.20;;;;;;;;;;109120;1259;33514;-35
2022/07/17 01:17:17;;;;;;;3.50;1.40;;;;;;;;;;109102;1255;33485;-35
2022/07/17 01:19:50;;;;;;;4.10;1.40;;;;;;;;;;109129;1253;33426;-35
2022/07/17 01:22:23;;;;;;;4.30;1.20;;;;;;;;;;109106;1254;33790;-35
2022/07/17 01:24:55;;;;;;;3.30;1.30;;;;;;;;;;109117;1253;33603;-35
2022/07/17 01:27:28;;;;;;;3.70;1.10;;;;;;;;;;109093;1253;33472;-35
2022/07/17 01:30:01;;;;;;;3.20;1.10;;;;;;;;;;109106;1251;33250;-35
2022/07/17 01:32:37;;;;;;;3.90;1.40;;;;;;;;;;109086;1259;33465;-35
2022/07/17 01:35:12;;;;;;;3.00;1.10;;;;;;;;;;109114;1253;33146;-35
2022/07/17 01:37:46;;;;;;;3.40;1.00;;;;;;;;;;109125;1253;33288;-35
2022/07/17 01:40:20;;;;;;;3.10;1.00;;;;;;;;;;109102;1259;33066;-35
2022/07/17 01:42:53;;;;;;;4.00;1.20;;;;;;;;;;109114;1259;33689;-35
2022/07/17 01:45:25;;;;;;;3.70;1.10;;;;;;;;;;109069;1253;33125;-35
2022/07/17 01:47:57;;;;;;;4.20;1.30;;;;;;;;;;109086;1259;33674;-35
2022/07/17 01:50:30;;;;;;;2.90;1.10;;;;;;;;;;109125;1259;33014;-35
2022/07/17 01:53:02;;;;;;;2.80;1.10;;;;;;;;;;109106;1259;33617;-35
2022/07/17 01:55:38;;;;;;;3.50;1.10;;;;;;;;;;109103;1252;33066;-35
2022/07/17 01:58:10;;;;;;;2.80;1.10;;;;;;;;;;109127;1253;33965;-35
2022/07/17 02:00:44;;;;;;;3.20;1.20;;;;;;;;;;109103;1254;33003;-35
2022/07/17 02:03:16;;;;;;;2.20;0.90;;;;;;;;;;109096;1259;33345;-35
2022/07/17 02:05:50;;;;;;;3.90;1.20;;;;;;;;;;109124;1253;33508;-35
2022/07/17 02:08:22;;;;;;;4.30;1.50;;;;;;;;;;109117;1253;33533;-35
2022/07/17 02:10:54;;;;;;;2.80;0.80;;;;;;;;;;109096;1257;32830;-35
2022/07/17 02:13:27;;;;;;;2.30;1.00;;;;;;;;;;109119;1259;33487;-35
2022/07/17 02:16:01;;;;;;;2.90;1.00;;;;;;;;;;109086;1253;33515;-35
2022/07/17 02:18:33;;;;;;;2.20;1.00;;;;;;;;;;109094;1253;33492;-35
2022/07/17 02:21:06;;;;;;;2.80;0.90;;;;;;;;;;109141;1259;33205;-35
2022/07/17 02:23:39;;;;;;;2.90;0.90;;;;;;;;;;109118;1259;33648;-35
2022/07/17 02:26:11;;;;;;;3.50;1.30;;;;;;;;;;109150;1253;33566;-35
2022/07/17 02:28:44;;;;;;;2.80;1.00;;;;;;;;;;109101;1253;33505;-35
2022/07/17 02:31:16;;;;;;;3.00;1.20;;;;;;;;;;109138;1253;32755;-35
2022/07/17 02:33:49;;;;;;;3.60;1.20;;;;;;;;;;109111;1259;33657;-35
2022/07/17 02:36:22;;;;;;;2.40;1.20;;;;;;;;;;109124;1253;33148;-35
2022/07/17 02:38:54;;;;;;;2.20;1.10;;;;;;;;;;109116;1253;33551;-35
2022/07/17 02:41:26;;;;;;;3.30;1.30;;;;;;;;;;109118;1254;33452;-35
2022/07/17 02:43:58;;;;;;;2.70;1.10;;;;;;;;;;109158;1259;33542;-35
2022/07/17 02:46:31;;;;;;;2.80;1.20;;;;;;;;;;109114;1253;33677;-35
2022/07/17 02:49:03;;;;;;;3.20;1.00;;;;;;;;;;109111;1253;33420;-35
2022/07/17 02:51:35;;;;;;;3.80;1.10;;;;;;;;;;109108;1259;33570;-35
2022/07/17 02:54:08;;;;;;;2.70;1.10;;;;;;;;;;109102;1253;33176;-35
2022/07/17 02:56:40;;;;;;;3.30;1.30;;;;;;;;;;109111;1253;33921;-35
2022/07/17 02:59:12;;;;;;;2.80;1.10;;;;;;;;;;109107;1253;33834;-35
2022/07/17 03:01:44;;;;;;;2.80;1.10;;;;;;;;;;109130;1259;33149;-35
2022/07/17 03:04:17;;;;;;;3.30;1.10;;;;;;;;;;109128;1252;33141;-35
2022/07/17 03:06:49;;;;;;;2.70;1.20;;;;;;;;;;109060;1253;33648;-35
2022/07/17 03:09:21;;;;;;;3.30;1.40;;;;;;;;;;109107;1253;33276;-35
2022/07/17 03:11:54;;;;;;;2.60;1.20;;;;;;;;;;109112;1259;33593;-35
2022/07/17 03:14:26;;;;;;;3.80;1.40;;;;;;;;;;109120;1253;33191;-35
2022/07/17 03:16:59;;;;;;;4.50;1.10;;;;;;;;;;109081;1253;33593;-35
2022/07/17 03:19:31;;;;;;;3.00;1.10;;;;;;;;;;109067;1253;33087;-35
2022/07/17 03:22:04;;;;;;;2.80;1.00;;;;;;;;;;109074;1259;33200;-35
2022/07/17 03:24:36;;;;;;;3.10;1.20;;;;;;;;;;109109;1253;33099;-35
2022/07/17 03:27:08;;;;;;;3.00;1.30;;;;;;;;;;109118;1254;33798;-35
2022/07/17 03:29:41;;;;;;;3.40;1.10;;;;;;;;;;109113;1259;32774;-35
2022/07/17 03:32:13;;;;;;;3.60;1.00;;;;;;;;;;109112;1259;33526;-35
2022/07/17 03:34:48;;;;;;;3.10;1.20;;;;;;;;;;109103;1253;33077;-35
2022/07/17 03:37:20;;;;;;;4.10;1.80;;;;;;;;;;109121;1253;33534;-35
2022/07/17 03:39:52;;;;;;;3.00;1.20;;;;;;;;;;109102;1253;33080;-35
2022/07/17 03:42:24;;;;;;;2.80;1.30;;;;;;;;;;109137;1259;33531;-35
2022/07/17 03:44:59;;;;;;;3.80;1.40;;;;;;;;;;109108;1252;33808;-35
2022/07/17 03:47:31;;;;;;;3.10;1.00;;;;;;;;;;109100;1253;33095;-35
2022/07/17 03:50:05;;;;;;;3.80;1.20;;;;;;;;;;109122;1259;33860;-35
2022/07/17 03:52:37;;;;;;;3.20;1.10;;;;;;;;;;109110;1254;33148;-35
2022/07/17 03:55:12;;;;;;;4.10;1.50;;;;;;;;;;109122;1253;33491;-35
2022/07/17 03:57:45;;;;;;;3.60;1.40;;;;;;;;;;109121;1253;33659;-35
2022/07/17 04:00:20;;;;;;;3.90;1.50;;;;;;;;;;109118;1254;33276;-35
2022/07/17 04:02:52;;;;;;;2.10;1.00;;;;;;;;;;109036;1259;33776;-35
2022/07/17 04:05:27;;;;;;;3.70;1.40;;;;;;;;;;109103;1253;33111;-35
2022/07/17 04:07:59;;;;;;;4.40;1.30;;;;;;;;;;109121;1253;33468;-35
2022/07/17 04:10:31;;;;;;;3.70;1.10;;;;;;;;;;109123;1253;33092;-35
2022/07/17 04:13:05;;;;;;;3.30;1.20;;;;;;;;;;109094;1259;33388;-35
2022/07/17 04:15:52;;;;;;;;;;;;;;;;;;109114;1255;33207;-35
2022/07/17 04:18:26;;;;;;;3.20;1.20;;;;;;;;;;109104;1259;32576;-35
2022/07/17 04:21:01;;;;;;;4.60;1.40;;;;;;;;;;109108;1253;33500;-36
2022/07/17 04:23:35;;;;;;;2.60;1.00;;;;;;;;;;109116;1254;32755;-35
2022/07/17 04:26:07;;;;;;;;;;;;;;;;;;109101;1259;33406;-35
2022/07/17 04:28:39;;;;;;;2.80;1.10;;;;;;;;;;109122;1253;33094;-35
2022/07/17 04:31:12;;;;;;;3.40;1.30;;;;;;;;;;109110;1251;34129;-35
2022/07/17 04:33:44;;;;;;;3.00;1.30;;;;;;;;;;109112;1255;33199;-35
2022/07/17 04:36:16;;;;;;;3.20;1.20;;;;;;;;;;109089;1253;33256;-35
2022/07/17 04:38:51;;;;;;;3.00;1.10;;;;;;;;;;109110;1254;33319;-35
2022/07/17 04:41:24;;;;;;;2.70;1.20;;;;;;;;;;109115;1253;32769;-35
2022/07/17 04:43:54;;;;;;;2.70;1.20;;;;;;;;;;105232;1259;5151134;-35
2022/07/17 04:46:27;;;;;;;3.40;1.30;;;;;;;;;;108974;1259;33663;-35
2022/07/17 04:48:59;;;;;;;2.20;1.20;;;;;;;;;;109096;1253;34041;-35
2022/07/17 04:51:31;;;;;;;3.10;1.20;;;;;;;;;;109091;1253;33914;-36
2022/07/17 04:54:05;;;;;;;3.20;1.10;;;;;;;;;;109114;1253;33306;-36
2022/07/17 04:56:37;;;;;;;2.80;1.00;;;;;;;;;;109118;1253;33597;-35
2022/07/17 04:59:09;;;;;;;2.90;1.50;;;;;;;;;;109127;1253;33626;-35
2022/07/17 05:01:41;;;;;;;3.50;1.50;;;;;;;;;;109066;1252;32728;-35
2022/07/17 05:04:14;;;;;;;3.00;1.10;;;;;;;;;;109075;1253;33265;-35
2022/07/17 05:06:47;;;;;;;2.70;1.20;;;;;;;;;;109080;1253;33098;-35
2022/07/17 05:09:19;;;;;;;3.10;1.20;;;;;;;;;;109116;1253;33564;-35
2022/07/17 05:11:51;;;;;;;2.60;1.10;;;;;;;;;;109115;1253;33409;-35
2022/07/17 05:14:24;;;;;;;2.60;1.10;;;;;;;;;;109097;1253;33215;-35
2022/07/17 05:16:57;;;;;;;3.80;1.30;;;;;;;;;;109126;1253;33229;-35
2022/07/17 05:19:29;;;;;;;2.30;1.10;;;;;;;;;;109086;1253;33616;-35
2022/07/17 05:22:01;;;;;;;3.40;1.10;;;;;;;;;;109120;1253;35294;-35
2022/07/17 05:24:34;;;;;;;2.20;1.00;;;;;;;;;;109075;1259;33545;-35
2022/07/17 05:27:07;;;;;;;2.90;1.10;;;;;;;;;;109114;1259;34075;-35
2022/07/17 05:29:39;;;;;;;3.30;1.20;;;;;;;;;;109111;1252;33657;-35
2022/07/17 05:32:12;;;;;;;3.50;1.10;;;;;;;;;;109104;1253;33241;-35
2022/07/17 05:34:44;;;;;;;4.40;1.40;;;;;;;;;;109095;1259;33511;-35
2022/07/17 05:37:16;;;;;;;3.50;1.30;;;;;;;;;;109071;1253;33675;-35
2022/07/17 05:39:49;;;;;;;4.80;1.30;;;;;;;;;;109098;1252;33660;-35
2022/07/17 05:42:21;;;;;;;4.90;1.30;;;;;;;;;;109104;1259;33871;-35
2022/07/17 05:44:53;;;;;;;3.30;1.20;;;;;;;;;;109099;1259;33648;-36
2022/07/17 05:47:26;;;;;;;3.60;1.20;;;;;;;;;;109076;1253;33772;-35
2022/07/17 05:49:58;;;;;;;3.80;1.30;;;;;;;;;;109116;1253;33987;-35
2022/07/17 05:52:31;;;;;;;3.30;1.40;;;;;;;;;;109117;1253;33227;-35
2022/07/17 05:55:03;;;;;;;3.30;1.30;;;;;;;;;;109135;1259;33432;-35
2022/07/17 05:57:36;;;;;;;3.70;1.40;;;;;;;;;;109108;1253;34147;-35
2022/07/17 06:00:12;;;;;;;3.90;1.20;;;;;;;;;;109105;1253;32768;-35
2022/07/17 06:02:45;;;;;;;3.60;1.40;;;;;;;;;;109124;1259;33882;-35
2022/07/17 06:05:16;;;;;;;;;;;;;;;;;;109120;1258;33224;-35
2022/07/17 06:07:48;;;;;;;3.30;1.30;;;;;;;;;;109103;1253;32759;-35
2022/07/17 06:10:21;;;;;;;3.00;1.20;;;;;;;;;;109145;1253;33624;-35
2022/07/17 06:12:53;;;;;;;4.30;1.40;;;;;;;;;;109102;1259;33278;-35
2022/07/17 06:15:26;;;;;;;3.90;1.40;;;;;;;;;;109117;1253;33257;-35
2022/07/17 06:18:02;;;;;;;3.90;1.30;;;;;;;;;;109129;1254;33963;-35
2022/07/17 06:20:35;;;;;;;3.60;1.40;;;;;;;;;;109122;1259;34072;-35
2022/07/17 06:23:07;;;;;;;2.60;1.30;;;;;;;;;;109109;1253;33283;-35
2022/07/17 06:25:39;;;;;;;4.00;1.20;;;;;;;;;;109121;1259;33121;-35
2022/07/17 06:28:11;;;;;;;5.70;1.30;;;;;;;;;;109082;1253;33639;-35
2022/07/17 06:30:43;;;;;;;7.10;1.80;;;;;;;;;;109114;1253;34001;-35
2022/07/17 06:33:16;;;;;;;5.20;1.50;;;;;;;;;;109114;1253;33544;-35
2022/07/17 06:35:48;;;;;;;6.90;1.40;;;;;;;;;;109099;1253;33389;-35
2022/07/17 06:38:20;;;;;;;6.00;1.90;;;;;;;;;;109105;1253;33478;-35
2022/07/17 06:40:55;;;;;;;5.70;1.70;;;;;;;;;;109090;1259;33219;-36
2022/07/17 06:43:28;;;;;;;6.30;1.80;;;;;;;;;;109100;1252;33558;-35
2022/07/17 06:46:00;;;;;;;8.10;2.40;;;;;;;;;;109098;1259;33669;-35
2022/07/17 06:48:33;;;;;;;7.80;2.80;;;;;;;;;;109131;1253;34136;-35
2022/07/17 06:51:05;;;;;;;8.60;2.90;;;;;;;;;;109100;1259;33364;-35
2022/07/17 06:53:38;;;;;;;7.20;2.10;;;;;;;;;;109125;1259;33215;-35
2022/07/17 06:56:11;;;;;;;5.60;2.30;;;;;;;;;;109085;1253;33642;-35
2022/07/17 06:58:43;;;;;;;6.50;2.20;;;;;;;;;;109133;1259;33195;-35
2022/07/17 07:01:16;;;;;;;7.10;2.40;;;;;;;;;;109134;1253;33192;-35
2022/07/17 07:03:48;;;;;;;5.20;2.60;;;;;;;;;;109101;1259;33151;-35
2022/07/17 07:06:20;;;;;;;5.80;2.60;;;;;;;;;;109110;1253;33287;-35
2022/07/17 07:08:52;;;;;;;6.40;2.70;;;;;;;;;;109062;1253;33689;-35
2022/07/17 07:11:25;;;;;;;6.20;2.00;;;;;;;;;;109100;1253;33634;-35
2022/07/17 07:13:57;;;;;;;5.60;2.40;;;;;;;;;;109119;1253;33607;-35
2022/07/17 07:16:29;;;;;;;5.80;2.00;;;;;;;;;;109097;1253;33532;-35
2022/07/17 07:19:02;;;;;;;8.50;3.00;;;;;;;;;;109111;1253;33054;-35
2022/07/17 07:21:34;;;;;;;7.30;2.70;;;;;;;;;;109097;1259;34101;-35
2022/07/17 07:24:07;;;;;;;7.50;2.50;;;;;;;;;;109114;1259;34195;-35
2022/07/17 07:26:40;;;;;;;7.60;2.70;;;;;;;;;;109129;1253;33589;-35
2022/07/17 07:29:12;;;;;;;7.20;3.20;;;;;;;;;;109093;1253;33575;-35
2022/07/17 07:31:44;;;;;;;6.90;3.20;;;;;;;;;;109080;1259;33532;-35
2022/07/17 07:34:16;;;;;;;6.60;2.90;;;;;;;;;;109070;1253;33088;-35
2022/07/17 07:36:49;;;;;;;6.10;2.40;;;;;;;;;;109091;1253;33537;-35
2022/07/17 07:39:21;;;;;;;5.90;2.50;;;;;;;;;;109109;1253;33690;-35
2022/07/17 07:41:53;;;;;;;6.40;2.60;;;;;;;;;;109077;1259;33940;-35
2022/07/17 07:44:25;;;;;;;5.70;2.50;;;;;;;;;;109105;1253;33252;-35
2022/07/17 07:46:57;;;;;;;6.00;2.80;;;;;;;;;;109131;1253;33550;-35
2022/07/17 07:49:30;;;;;;;6.40;2.70;;;;;;;;;;109086;1253;34152;-35
2022/07/17 07:52:03;;;;;;;5.60;2.40;;;;;;;;;;109108;1259;33510;-35
2022/07/17 07:54:35;;;;;;;5.10;2.30;;;;;;;;;;109142;1253;33754;-35
2022/07/17 07:57:08;;;;;;;5.40;2.20;;;;;;;;;;109093;1253;34088;-36
2022/07/17 07:59:40;;;;;;;5.40;2.40;;;;;;;;;;109115;1253;33400;-36
2022/07/17 08:02:12;;;;;;;4.60;2.30;;;;;;;;;;109093;1259;34078;-35
2022/07/17 08:04:45;;;;;;;4.90;2.30;;;;;;;;;;109137;1253;33865;-35
2022/07/17 08:07:17;;;;;;;5.10;2.30;;;;;;;;;;109086;1253;33551;-35
2022/07/17 08:09:49;;;;;;;6.00;2.40;;;;;;;;;;109098;1259;33784;-35
2022/07/17 08:12:22;;;;;;;4.20;2.20;;;;;;;;;;109126;1253;33106;-35
2022/07/17 08:14:55;;;;;;;3.70;2.20;;;;;;;;;;109120;1253;33477;-36
2022/07/17 08:17:27;;;;;;;3.60;1.90;;;;;;;;;;109175;1253;33590;-36
2022/07/17 08:19:59;;;;;;;4.50;2.40;;;;;;;;;;109153;1253;33498;-35
2022/07/17 08:22:31;;;;;;;4.30;2.20;;;;;;;;;;109109;1259;33185;-35
2022/07/17 08:25:06;;;;;;;6.20;2.20;;;;;;;;;;109128;1252;33530;-35
2022/07/17 08:27:41;;;;;;;4.90;2.00;;;;;;;;;;109139;1253;33466;-35
2022/07/17 08:30:16;;;;;;;3.80;1.90;;;;;;;;;;109133;1256;33516;-35
2022/07/17 08:32:48;;;;;;;3.70;1.90;;;;;;;;;;109170;1253;33299;-35
2022/07/17 08:35:20;;;;;;;5.40;2.10;;;;;;;;;;108971;1253;33764;-36
2022/07/17 08:37:54;;;;;;;4.00;1.90;;;;;;;;;;109126;1251;33611;-36
2022/07/17 08:40:30;;;;;;;4.30;2.00;;;;;;;;;;109124;1253;33757;-36
2022/07/17 08:43:04;;;;;;;4.40;1.90;;;;;;;;;;109136;1259;33895;-36
2022/07/17 08:45:37;;;;;;;3.70;1.90;;;;;;;;;;109128;1253;33746;-36
2022/07/17 08:48:10;;;;;;;4.90;1.80;;;;;;;;;;109137;1253;33456;-36
2022/07/17 08:50:43;;;;;;;3.90;1.80;;;;;;;;;;109119;1252;34071;-36
2022/07/17 08:53:16;;;;;;;3.70;1.80;;;;;;;;;;109143;1259;33760;-36
2022/07/17 08:55:49;;;;;;;4.40;2.10;;;;;;;;;;109168;1253;33576;-36
2022/07/17 08:58:21;;;;;;;3.20;1.70;;;;;;;;;;109128;1253;33600;-36
2022/07/17 09:00:54;;;;;;;4.60;1.60;;;;;;;;;;109176;1253;33778;-36
2022/07/17 09:03:26;;;;;;;3.10;1.50;;;;;;;;;;109133;1253;33940;-36
2022/07/17 09:05:59;;;;;;;3.10;1.70;;;;;;;;;;109152;1253;34045;-36
2022/07/17 09:08:35;;;;;;;4.10;1.70;;;;;;;;;;109156;1259;34055;-36
2022/07/17 09:11:09;;;;;;;3.70;1.50;;;;;;;;;;109149;1253;34530;-36
2022/07/17 09:13:43;;;;;;;;;;;;;;;;;;109141;1251;33104;-36
2022/07/17 09:16:16;;;;;;;3.10;1.40;;;;;;;;;;109157;1253;32795;-36
2022/07/17 09:18:54;;;;;;;3.80;1.40;;;;;;;;;;109169;1249;33186;31
2022/07/17 09:21:29;;;;;;;3.50;1.30;;;;;;;;;;108801;1260;34902;-46
2022/07/17 09:24:07;;;;;;;3.20;1.30;;;;;;;;;;108847;1254;34112;-48
2022/07/17 09:26:46;;;;;;;4.50;1.40;;;;;;;;;;108868;1254;33651;-48
2022/07/17 09:29:18;;;;;;;2.80;1.50;;;;;;;;;;108858;1254;33722;-46
2022/07/17 09:31:54;;;;;;;3.20;1.20;;;;;;;;;;108856;1253;33467;-45
2022/07/17 09:34:26;;;;;;;2.50;1.10;;;;;;;;;;108830;1256;33644;-47
2022/07/17 09:37:04;;;;;;;3.90;1.40;;;;;;;;;;108856;1260;34128;-45
2022/07/17 09:39:41;;;;;;;2.70;1.30;;;;;;;;;;108820;1254;33821;-44
2022/07/17 09:42:24;;;;;;;3.10;1.30;;;;;;;;;;108872;1256;33596;-44
2022/07/17 09:45:05;;;;;;;2.90;1.50;;;;;;;;;;108844;1252;33682;-47
2022/07/17 09:47:39;;;;;;;2.90;1.20;;;;;;;;;;108834;1260;33866;-47
2022/07/17 09:50:12;;;;;;;2.50;1.30;;;;;;;;;;108859;1254;33988;-46
2022/07/17 09:52:44;;;;;;;3.60;1.40;;;;;;;;;;108837;1254;33298;-43
2022/07/17 09:55:19;;;;;;;3.00;1.20;;;;;;;;;;108819;1253;33631;-47
2022/07/17 09:57:53;;;;;;;2.60;1.00;;;;;;;;;;108889;1254;34029;-47
2022/07/17 10:00:26;;;;;;;3.10;1.30;;;;;;;;;;108868;1255;33829;-45
2022/07/17 10:03:00;;;;;;;3.20;1.20;;;;;;;;;;108845;1253;33239;-46
2022/07/17 10:05:32;;;;;;;4.50;1.60;;;;;;;;;;108850;1256;33148;-45
2022/07/17 10:08:06;;;;;;;2.90;1.30;;;;;;;;;;108807;1256;33222;-47
2022/07/17 10:10:38;;;;;;;2.80;1.20;;;;;;;;;;108861;1254;34087;-45
2022/07/17 10:13:12;;;;;;;2.90;1.20;;;;;;;;;;108830;1255;33285;-45
2022/07/17 10:15:45;;;;;;;2.50;0.90;;;;;;;;;;108893;1254;33488;-46
2022/07/17 10:18:17;;;;;;;2.00;1.00;;;;;;;;;;108875;1256;33597;-46
2022/07/17 10:20:49;;;;;;;2.20;1.10;;;;;;;;;;108813;1255;33632;-47
2022/07/17 10:23:21;;;;;;;3.40;1.10;;;;;;;;;;108853;1254;33607;-44
2022/07/17 10:26:05;;;;;;;3.10;1.10;;;;;;;;;;108836;1253;34028;-45
2022/07/17 10:28:49;;;;;;;2.00;0.90;;;;;;;;;;108852;1254;33770;-46
2022/07/17 10:31:30;;;;;;;2.60;0.90;;;;;;;;;;108844;1255;33754;-45
2022/07/17 10:34:05;;;;;;;4.00;1.20;;;;;;;;;;108836;1254;33583;-44
2022/07/17 10:36:39;;;;;;;2.60;0.90;;;;;;;;;;108833;1260;33941;-45
2022/07/17 10:39:18;;;;;;;1.80;0.80;;;;;;;;;;108853;1255;33762;-46
2022/07/17 10:42:02;;;;;;;2.50;1.00;;;;;;;;;;108857;1255;33557;-47
2022/07/17 10:44:37;;;;;;;2.40;0.80;;;;;;;;;;108833;1254;33646;-43
2022/07/17 10:47:09;;;;;;;3.00;1.00;;;;;;;;;;108848;1260;33757;-47
2022/07/17 10:49:42;;;;;;;1.90;0.90;;;;;;;;;;108865;1261;33259;-44
2022/07/17 10:52:14;;;;;;;3.00;1.10;;;;;;;;;;108833;1253;33609;-47
2022/07/17 10:54:47;;;;;;;2.00;0.90;;;;;;;;;;108862;1256;33876;-48
2022/07/17 10:57:20;;;;;;;3.30;1.20;;;;;;;;;;108815;1253;33608;-47
2022/07/17 10:59:53;;;;;;;3.20;1.00;;;;;;;;;;108850;1255;33683;-43
2022/07/17 11:02:33;;;;;;;2.30;1.10;;;;;;;;;;108851;1254;33903;-44
2022/07/17 11:05:12;;;;;;;3.40;1.10;;;;;;;;;;108876;1255;34236;-44
2022/07/17 11:07:59;;;;;;;3.30;1.20;;;;;;;;;;108887;1255;33211;-47
2022/07/17 11:10:32;;;;;;;3.00;1.10;;;;;;;;;;108859;1255;33762;-47
2022/07/17 11:13:15;;;;;;;2.40;1.00;;;;;;;;;;108809;1261;33877;-48
2022/07/17 11:15:49;;;;;;;3.10;0.90;;;;;;;;;;108891;1259;33588;-46
2022/07/17 11:18:24;;;;;;;2.40;1.10;;;;;;;;;;108839;1255;33619;-47
2022/07/17 11:20:58;;;;;;;2.10;0.90;;;;;;;;;;108839;1261;33790;-45
2022/07/17 11:23:33;;;;;;;2.60;1.10;;;;;;;;;;108843;1256;33219;-44
2022/07/17 11:26:08;;;;;;;2.70;1.00;;;;;;;;;;108860;1254;33795;-47
2022/07/17 11:28:43;;;;;;;2.90;0.90;;;;;;;;;;108860;1254;33274;-47
2022/07/17 11:31:24;;;;;;;3.30;1.20;;;;;;;;;;108860;1253;33744;-47
2022/07/17 11:33:59;;;;;;;2.30;1.00;;;;;;;;;;108873;1255;33108;-47
2022/07/17 11:36:35;;;;;;;1.90;1.00;;;;;;;;;;108833;1261;33831;-45
2022/07/17 11:39:11;;;;;;;2.90;1.10;;;;;;;;;;108814;1254;33608;-44
2022/07/17 11:41:46;;;;;;;3.60;1.10;;;;;;;;;;108854;1255;33626;-46
2022/07/17 11:44:21;;;;;;;2.80;1.10;;;;;;;;;;108833;1255;34188;-44
2022/07/17 11:46:54;;;;;;;3.30;1.20;;;;;;;;;;108832;1256;33492;-47
2022/07/17 11:49:34;;;;;;;2.70;1.30;;;;;;;;;;108838;1255;34058;-44
2022/07/17 11:52:14;;;;;;;2.30;1.20;;;;;;;;;;108870;1255;34116;-44
2022/07/17 11:54:51;;;;;;;2.70;1.10;;;;;;;;;;108825;1253;33707;-46
2022/07/17 11:57:28;;;;;;;3.10;1.30;;;;;;;;;;108829;1255;33512;-46
2022/07/17 12:00:15;;;;;;;2.30;1.10;;;;;;;;;;108854;1260;34140;-44
2022/07/17 12:02:48;;;;;;;2.80;1.30;;;;;;;;;;108860;1260;33585;-45
2022/07/17 12:05:29;;;;;;;2.70;1.00;;;;;;;;;;108825;1256;33219;-45
2022/07/17 12:08:02;;;;;;;3.20;1.30;;;;;;;;;;108829;1254;33802;-46
2022/07/17 12:10:35;;;;;;;3.10;1.20;;;;;;;;;;108845;1253;34271;-45
2022/07/17 12:13:07;;;;;;;;;;;;;;;;;;108875;1256;33143;-47
2022/07/17 12:15:44;;;;;;;3.10;1.10;;;;;;;;;;108832;1252;33328;-43
2022/07/17 12:18:27;;;;;;;2.50;1.10;;;;;;;;;;108864;1254;33715;-45
2022/07/17 12:21:05;;;;;;;3.70;1.20;;;;;;;;;;108807;1255;34006;-47
2022/07/17 12:23:40;;;;;;;4.20;1.10;;;;;;;;;;108855;1255;33146;-46
2022/07/17 12:26:16;;;;;;;2.80;1.10;;;;;;;;;;108831;1254;33671;-47
2022/07/17 12:28:51;;;;;;;2.50;0.90;;;;;;;;;;108842;1254;33254;-46
2022/07/17 12:31:24;;;;;;;5.20;1.50;;;;;;;;;;108846;1253;34702;-47
2022/07/17 12:33:57;;;;;;;4.30;1.30;;;;;;;;;;108867;1260;34050;-45
2022/07/17 12:36:29;;;;;;;3.80;1.20;;;;;;;;;;108846;1261;33763;-47
2022/07/17 12:39:02;;;;;;;4.50;1.30;;;;;;;;;;108865;1255;33748;-47
2022/07/17 12:41:35;;;;;;;5.40;1.30;;;;;;;;;;108900;1254;33655;-45
2022/07/17 12:44:07;;;;;;;;;;;;;;;;;;108512;1255;492199;-47
2022/07/17 12:46:41;;;;;;;3.70;1.20;;;;;;;;;;108864;1260;33591;-45
2022/07/17 12:49:14;;;;;;;4.00;1.40;;;;;;;;;;108863;1254;33556;-47
2022/07/17 12:51:47;;;;;;;3.70;1.50;;;;;;;;;;108835;1255;33681;-47
2022/07/17 12:54:19;;;;;;;3.80;1.40;;;;;;;;;;108828;1254;33659;-47
2022/07/17 12:56:51;;;;;;;3.20;1.20;;;;;;;;;;108834;1256;33504;-44
2022/07/17 12:59:26;;;;;;;3.60;1.20;;;;;;;;;;108859;1261;33993;-45
2022/07/17 13:02:00;;;;;;;4.10;1.40;;;;;;;;;;108844;1254;33588;-47
2022/07/17 13:04:32;;;;;;;9.80;7.00;;;;;;;;;;108817;1255;33575;-43
2022/07/17 13:07:05;;;;;;;12.50;11.30;;;;;;;;;;108861;1255;33632;-43
2022/07/17 13:09:38;;;;;;;12.10;9.20;;;;;;;;;;108836;1255;33680;-46
2022/07/17 13:12:09;;;;;;;;;;;;;;;;;;108865;1256;33664;-47
2022/07/17 13:14:41;;;;;;;9.70;8.50;;;;;;;;;;108868;1254;33817;-44
2022/07/17 13:17:14;;;;;;;11.40;10.20;;;;;;;;;;108849;1261;33986;-44
2022/07/17 13:19:46;;;;;;;10.50;9.40;;;;;;;;;;108877;1256;33895;-45
2022/07/17 13:22:19;;;;;;;11.00;9.20;;;;;;;;;;108856;1254;34020;-45
2022/07/17 13:24:54;;;;;;;10.10;8.80;;;;;;;;;;108837;1253;33781;-46
2022/07/17 13:27:30;;;;;;;9.80;7.90;;;;;;;;;;108856;1261;33954;-45
2022/07/17 13:30:04;;;;;;;8.00;6.60;;;;;;;;;;108883;1255;33606;-46
2022/07/17 13:32:37;;;;;;;8.10;6.20;;;;;;;;;;108692;1255;33768;-47
2022/07/17 13:35:11;;;;;;;8.20;6.50;;;;;;;;;;108850;1255;33596;-44
2022/07/17 13:37:43;;;;;;;11.70;7.80;;;;;;;;;;108853;1254;33155;-47
2022/07/17 13:40:18;;;;;;;11.90;8.10;;;;;;;;;;108838;1255;34148;-46
2022/07/17 13:42:52;;;;;;;10.30;7.30;;;;;;;;;;108866;1254;33693;-46
2022/07/17 13:45:24;;;;;;;10.90;6.90;;;;;;;;;;108855;1256;33854;-46
2022/07/17 13:47:56;;;;;;;10.70;6.10;;;;;;;;;;108850;1261;34092;-46
2022/07/17 13:50:29;;;;;;;8.90;5.00;;;;;;;;;;108842;1260;33977;-44
2022/07/17 13:53:02;;;;;;;9.40;5.10;;;;;;;;;;108841;1256;33585;-47
2022/07/17 13:55:35;;;;;;;9.30;4.50;;;;;;;;;;108860;1256;33566;-47
2022/07/17 13:58:08;;;;;;;8.40;4.60;;;;;;;;;;108826;1260;34085;-47
2022/07/17 14:00:41;;;;;;;8.20;4.30;;;;;;;;;;108817;1256;33678;-47
2022/07/17 14:03:13;;;;;;;7.20;4.50;;;;;;;;;;108842;1254;33562;-45
2022/07/17 14:05:46;;;;;;;7.30;4.20;;;;;;;;;;108842;1256;33012;-46
2022/07/17 14:08:18;;;;;;;7.00;5.20;;;;;;;;;;108830;1261;33883;-47
2022/07/17 14:10:51;;;;;;;6.10;4.00;;;;;;;;;;108832;1254;34158;-46
2022/07/17 14:13:25;;;;;;;6.70;3.90;;;;;;;;;;108885;1256;33044;-43
2022/07/17 14:15:57;;;;;;;5.40;2.70;;;;;;;;;;108839;1256;33511;-46
2022/07/17 14:18:30;;;;;;;7.00;3.60;;;;;;;;;;108881;1260;33922;-47
2022/07/17 14:21:02;;;;;;;5.20;3.10;;;;;;;;;;108826;1254;34528;-45
2022/07/17 14:23:34;;;;;;;6.60;3.40;;;;;;;;;;108836;1255;33691;-44
2022/07/17 14:26:06;;;;;;;5.20;2.50;;;;;;;;;;108837;1262;33889;-47
2022/07/17 14:28:38;;;;;;;5.80;3.20;;;;;;;;;;108826;1254;33230;-47
2022/07/17 14:31:11;;;;;;;4.70;2.50;;;;;;;;;;108817;1255;33930;-45
2022/07/17 14:33:43;;;;;;;5.20;2.60;;;;;;;;;;108851;1254;33049;-44
2022/07/17 14:36:15;;;;;;;4.60;2.30;;;;;;;;;;108840;1256;34392;-47
2022/07/17 14:38:48;;;;;;;4.80;2.20;;;;;;;;;;108859;1255;33017;-47
2022/07/17 14:41:21;;;;;;;3.90;1.80;;;;;;;;;;108864;1254;34005;-47
2022/07/17 14:43:54;;;;;;;4.10;1.80;;;;;;;;;;108835;1254;33167;-46
2022/07/17 14:46:26;;;;;;;4.00;1.90;;;;;;;;;;108847;1255;33660;-47
2022/07/17 14:48:58;;;;;;;4.90;1.80;;;;;;;;;;108845;1255;33063;-47
2022/07/17 14:51:31;;;;;;;6.40;2.90;;;;;;;;;;108839;1259;33676;-47
2022/07/17 14:54:06;;;;;;;5.70;2.20;;;;;;;;;;108843;1254;34052;-46
2022/07/17 14:56:38;;;;;;;4.80;1.90;;;;;;;;;;108843;1254;33704;-47
2022/07/17 14:59:11;;;;;;;4.60;2.20;;;;;;;;;;108837;1256;33425;-45
2022/07/17 15:01:44;;;;;;;5.20;2.10;;;;;;;;;;108829;1252;33608;-47
2022/07/17 15:04:16;;;;;;;7.00;2.10;;;;;;;;;;108860;1254;34991;-48
2022/07/17 15:06:49;;;;;;;5.30;2.10;;;;;;;;;;108809;1256;33535;-47